Time;durP1;ratioP1;P1;durP2;ratioP2;P2;SDS_P1;SDS_P2;PMS_P1;PMS_P2;Temp;Humidity;BMP_temperature;BMP_pressure;BME280_temperature;BME280_humidity;BME280_pressure;Samples;Min_cycle;Max_cycle;Signal;HPM_P1;HPM_P2
2023/01/16 00:00:30;;;;;;;276.15;153.00;;;;;;;;;;5051014;28;20398;-72
2023/01/16 00:02:56;;;;;;;182.40;107.80;;;;;;;;;;5053037;28;20112;-72
2023/01/16 00:05:21;;;;;;;165.32;100.43;;;;;;;;;;5062020;28;20377;-72
2023/01/16 00:07:46;;;;;;;174.70;101.20;;;;;;;;;;5056919;28;20424;-74
2023/01/16 00:10:12;;;;;;;218.88;124.18;;;;;;;;;;5058994;28;20115;-73
2023/01/16 00:12:37;;;;;;;265.27;145.52;;;;;;;;;;5061052;28;20036;-72
2023/01/16 00:15:03;;;;;;;228.70;123.82;;;;;;;;;;5060461;28;20023;-73
2023/01/16 00:17:28;;;;;;;199.98;119.80;;;;;;;;;;5063556;28;20487;-73
2023/01/16 00:19:53;;;;;;;185.52;106.85;;;;;;;;;;5057971;28;20120;-74
2023/01/16 00:22:19;;;;;;;146.05;88.97;;;;;;;;;;5065915;28;20370;-72
2023/01/16 00:24:44;;;;;;;143.38;86.22;;;;;;;;;;5066068;28;20469;-73
2023/01/16 00:27:09;;;;;;;131.20;80.35;;;;;;;;;;5068032;28;20027;-72
2023/01/16 00:29:35;;;;;;;126.88;79.68;;;;;;;;;;5063855;28;20032;-72
2023/01/16 00:32:00;;;;;;;178.15;99.57;;;;;;;;;;5053693;28;20028;-72
2023/01/16 00:34:25;;;;;;;142.80;77.50;;;;;;;;;;5055807;28;20032;-75
2023/01/16 00:36:50;;;;;;;133.77;76.93;;;;;;;;;;5068478;28;20028;-73
2023/01/16 00:39:16;;;;;;;139.63;85.72;;;;;;;;;;5065810;28;20035;-72
2023/01/16 00:41:41;;;;;;;280.30;104.88;;;;;;;;;;5067130;28;20044;-72
2023/01/16 00:44:06;;;;;;;120.60;68.38;;;;;;;;;;5065676;28;20624;-74
2023/01/16 00:46:32;;;;;;;122.50;65.97;;;;;;;;;;5053447;28;20028;-72
2023/01/16 00:48:57;;;;;;;105.88;64.18;;;;;;;;;;5066782;28;20462;-72
2023/01/16 00:51:22;;;;;;;128.73;76.65;;;;;;;;;;5051725;28;20024;-72
2023/01/16 00:53:48;;;;;;;139.35;87.30;;;;;;;;;;5058678;28;20143;-72
2023/01/16 00:56:13;;;;;;;112.05;73.28;;;;;;;;;;5063947;28;20047;-73
2023/01/16 00:58:38;;;;;;;96.53;66.13;;;;;;;;;;5065137;28;20020;-74
2023/01/16 01:01:04;;;;;;;100.50;59.15;;;;;;;;;;5061177;28;20113;-72
2023/01/16 01:03:29;;;;;;;118.65;64.72;;;;;;;;;;5058285;28;20090;-73
2023/01/16 01:05:55;;;;;;;188.35;113.93;;;;;;;;;;5065506;28;20433;-74
2023/01/16 01:08:20;;;;;;;184.25;119.93;;;;;;;;;;5052628;28;20384;-73
2023/01/16 01:10:45;;;;;;;135.52;85.93;;;;;;;;;;5066053;28;20028;-73
2023/01/16 01:13:11;;;;;;;126.15;83.53;;;;;;;;;;5065509;28;20032;-73
2023/01/16 01:15:36;;;;;;;135.25;75.35;;;;;;;;;;5065295;28;21146;-73
2023/01/16 01:18:01;;;;;;;196.73;80.00;;;;;;;;;;5065720;28;20032;-72
2023/01/16 01:20:27;;;;;;;206.05;97.97;;;;;;;;;;5064673;28;20399;-74
2023/01/16 01:22:52;;;;;;;152.75;64.13;;;;;;;;;;5064865;28;20341;-72
2023/01/16 01:25:17;;;;;;;115.57;57.63;;;;;;;;;;5053482;28;20063;-73
2023/01/16 01:27:43;;;;;;;230.75;79.72;;;;;;;;;;5062232;28;20727;-73
2023/01/16 01:30:08;;;;;;;123.50;73.90;;;;;;;;;;5066063;28;20043;-73
2023/01/16 01:32:36;;;;;;;127.88;71.50;;;;;;;;;;5051926;28;20352;-74
2023/01/16 01:35:02;;;;;;;105.22;60.47;;;;;;;;;;5056605;28;20115;-72
2023/01/16 01:37:27;;;;;;;91.25;57.65;;;;;;;;;;5065744;28;20158;-72
2023/01/16 01:39:52;;;;;;;121.03;73.53;;;;;;;;;;5062540;28;20029;-73
2023/01/16 01:45:25;;;;;;;163.32;78.28;;;;;;;;;;5062554;28;20039;-75
2023/01/16 01:48:00;;;;;;;161.52;71.80;;;;;;;;;;5049870;28;20032;-74
2023/01/16 01:50:31;;;;;;;136.65;60.00;;;;;;;;;;5060357;28;20032;-73
2023/01/16 01:52:59;;;;;;;151.23;63.55;;;;;;;;;;5043477;28;20068;-73
2023/01/16 01:55:25;;;;;;;144.32;64.65;;;;;;;;;;5045993;28;20110;-74
2023/01/16 01:57:55;;;;;;;257.95;71.72;;;;;;;;;;5054350;28;20758;-72
2023/01/16 02:00:21;;;;;;;151.13;53.90;;;;;;;;;;5053565;28;20021;-72
2023/01/16 02:02:50;;;;;;;203.70;55.42;;;;;;;;;;5060952;28;20052;-72
2023/01/16 02:05:19;;;;;;;258.08;63.20;;;;;;;;;;5059587;28;20062;-72
2023/01/16 02:07:44;;;;;;;141.00;52.17;;;;;;;;;;5055800;28;20043;-73
2023/01/16 02:10:16;;;;;;;160.73;48.38;;;;;;;;;;5050259;28;20357;-73
2023/01/16 02:12:41;;;;;;;189.82;49.92;;;;;;;;;;5059245;28;20036;-72
2023/01/16 02:15:07;;;;;;;181.38;52.63;;;;;;;;;;5046901;28;20052;-73
2023/01/16 02:20:20;;;;;;;134.98;56.15;;;;;;;;;;5057696;28;20195;-72
2023/01/16 02:23:04;;;;;;;87.93;44.28;;;;;;;;;;5059332;28;20349;-73
2023/01/16 02:25:48;;;;;;;109.07;56.22;;;;;;;;;;5060382;28;20107;-72
2023/01/16 02:28:26;;;;;;;87.43;50.65;;;;;;;;;;5062081;28;20092;-72
2023/01/16 02:30:54;;;;;;;103.30;61.03;;;;;;;;;;5051452;28;20043;-73
2023/01/16 02:33:38;;;;;;;78.05;54.83;;;;;;;;;;5061488;28;20033;-72
2023/01/16 02:36:03;;;;;;;70.38;50.42;;;;;;;;;;5062401;28;20028;-72
2023/01/16 02:38:41;;;;;;;52.35;41.58;;;;;;;;;;5050309;28;20035;-72
2023/01/16 02:41:20;;;;;;;47.33;37.03;;;;;;;;;;5058073;28;20253;-71
2023/01/16 02:43:45;;;;;;;42.13;33.63;;;;;;;;;;5060697;28;20129;-74
2023/01/16 02:46:15;;;;;;;39.50;32.45;;;;;;;;;;5052408;28;20461;-71
2023/01/16 02:48:58;;;;;;;43.22;36.28;;;;;;;;;;5062166;28;20016;-72
2023/01/16 02:51:30;;;;;;;43.60;34.97;;;;;;;;;;5060321;28;20448;-72
2023/01/16 02:54:10;;;;;;;46.47;37.10;;;;;;;;;;5064263;28;20032;-73
2023/01/16 02:56:35;;;;;;;;;;;;;;;;;;5061892;28;20035;-72
2023/01/16 02:59:00;;;;;;;49.93;38.63;;;;;;;;;;5053180;28;19908;-72
2023/01/16 03:01:26;;;;;;;42.60;34.35;;;;;;;;;;5053437;28;20261;-72
2023/01/16 03:03:54;;;;;;;47.22;36.25;;;;;;;;;;5055976;28;20028;-72
2023/01/16 03:06:19;;;;;;;61.80;45.75;;;;;;;;;;5061800;28;20467;-72
2023/01/16 03:08:50;;;;;;;59.45;45.13;;;;;;;;;;5060457;28;20089;-72
2023/01/16 03:11:22;;;;;;;48.17;38.17;;;;;;;;;;5059750;28;20028;-73
2023/01/16 03:13:50;;;;;;;46.00;35.03;;;;;;;;;;5060083;28;20040;-72
2023/01/16 03:16:21;;;;;;;44.95;35.20;;;;;;;;;;5060831;28;20046;-73
2023/01/16 03:18:57;;;;;;;47.03;36.42;;;;;;;;;;5062074;28;20647;-72
2023/01/16 03:21:37;;;;;;;48.30;36.92;;;;;;;;;;5061547;28;20027;-72
2023/01/16 03:24:08;;;;;;;50.75;39.55;;;;;;;;;;5063119;28;20068;-71
2023/01/16 03:26:41;;;;;;;54.72;44.22;;;;;;;;;;5059301;28;20025;-72
2023/01/16 03:29:07;;;;;;;45.80;37.50;;;;;;;;;;5060474;28;20028;-72
2023/01/16 03:31:38;;;;;;;40.65;34.03;;;;;;;;;;5062835;28;20027;-72
2023/01/16 03:34:11;;;;;;;44.15;36.17;;;;;;;;;;5061407;28;20024;-72
2023/01/16 03:36:39;;;;;;;45.55;38.65;;;;;;;;;;5050575;28;20118;-72
2023/01/16 03:39:07;;;;;;;49.33;40.03;;;;;;;;;;5061003;28;20042;-72
2023/01/16 03:41:33;;;;;;;44.13;36.65;;;;;;;;;;5061626;28;20052;-73
2023/01/16 03:44:04;;;;;;;41.05;34.15;;;;;;;;;;5062532;28;20040;-72
2023/01/16 03:46:30;;;;;;;47.03;38.83;;;;;;;;;;5060188;28;20028;-73
2023/01/16 03:48:58;;;;;;;60.78;50.35;;;;;;;;;;5060341;28;20383;-72
2023/01/16 03:51:29;;;;;;;58.45;46.83;;;;;;;;;;5050217;28;20040;-72
2023/01/16 03:54:06;;;;;;;75.40;58.35;;;;;;;;;;5056262;28;20024;-73
2023/01/16 03:56:58;;;;;;;76.13;56.17;;;;;;;;;;5062202;28;20028;-73
2023/01/16 03:59:23;;;;;;;78.80;58.78;;;;;;;;;;5018472;28;20042;-72
2023/01/16 04:01:56;;;;;;;68.18;53.22;;;;;;;;;;5021020;28;20122;-72
2023/01/16 04:04:32;;;;;;;68.20;53.00;;;;;;;;;;5020319;28;20045;-71
2023/01/16 04:06:57;;;;;;;57.15;41.95;;;;;;;;;;5022028;28;20037;-71
2023/01/16 04:09:48;;;;;;;51.45;39.78;;;;;;;;;;5016495;28;20033;-72
2023/01/16 04:12:17;;;;;;;66.50;50.20;;;;;;;;;;5019452;28;20538;-71
2023/01/16 04:14:43;;;;;;;67.65;50.53;;;;;;;;;;5010104;28;20076;-72
2023/01/16 04:17:09;;;;;;;78.05;53.83;;;;;;;;;;5012464;28;20026;-72
2023/01/16 04:19:36;;;;;;;76.38;55.30;;;;;;;;;;5019209;28;20056;-73
2023/01/16 04:22:05;;;;;;;106.03;78.10;;;;;;;;;;5020680;28;20060;-72
2023/01/16 04:24:30;;;;;;;120.22;86.85;;;;;;;;;;5018505;28;20505;-73
2023/01/16 04:26:55;;;;;;;117.78;86.82;;;;;;;;;;5018581;28;20145;-72
2023/01/16 04:29:21;;;;;;;77.03;57.72;;;;;;;;;;5020408;28;20048;-72
2023/01/16 04:31:46;;;;;;;60.88;46.15;;;;;;;;;;5021120;28;20373;-71
2023/01/16 04:34:11;;;;;;;71.80;55.55;;;;;;;;;;5019776;28;21135;-73
2023/01/16 04:36:36;;;;;;;72.50;52.63;;;;;;;;;;5035296;28;20120;-72
2023/01/16 04:39:02;;;;;;;76.65;54.22;;;;;;;;;;5060370;28;20024;-72
2023/01/16 04:41:36;;;;;;;111.78;86.30;;;;;;;;;;5060788;28;20460;-72
2023/01/16 04:44:03;;;;;;;71.82;54.95;;;;;;;;;;5061470;28;20119;-73
2023/01/16 04:46:28;;;;;;;57.20;45.17;;;;;;;;;;5060807;28;20029;-73
2023/01/16 04:48:53;;;;;;;75.97;58.97;;;;;;;;;;5060590;28;20085;-71
2023/01/16 04:51:19;;;;;;;73.47;56.13;;;;;;;;;;5056848;28;20020;-72
2023/01/16 04:53:44;;;;;;;68.65;54.03;;;;;;;;;;5047355;28;20025;-73
2023/01/16 04:56:09;;;;;;;65.60;50.85;;;;;;;;;;5048489;28;20031;-72
2023/01/16 04:58:34;;;;;;;56.35;44.80;;;;;;;;;;5047723;28;20410;-74
2023/01/16 05:01:00;;;;;;;65.28;54.85;;;;;;;;;;5044623;28;20060;-73
2023/01/16 05:03:25;;;;;;;65.60;52.42;;;;;;;;;;5052418;28;20028;-75
2023/01/16 05:05:50;;;;;;;65.22;50.00;;;;;;;;;;5062446;28;20376;-73
2023/01/16 05:08:16;;;;;;;54.70;42.75;;;;;;;;;;5050350;28;20363;-73
2023/01/16 05:10:41;;;;;;;48.95;39.38;;;;;;;;;;5062364;28;20029;-73
2023/01/16 05:13:06;;;;;;;47.28;39.13;;;;;;;;;;5063585;28;20167;-73
2023/01/16 05:15:32;;;;;;;56.90;45.70;;;;;;;;;;5065576;28;20107;-73
2023/01/16 05:17:58;;;;;;;68.30;51.72;;;;;;;;;;5063667;28;20028;-72
2023/01/16 05:20:23;;;;;;;100.18;70.38;;;;;;;;;;5064349;28;20024;-73
2023/01/16 05:22:48;;;;;;;113.25;85.13;;;;;;;;;;5054410;28;20457;-73
2023/01/16 05:25:14;;;;;;;202.90;151.30;;;;;;;;;;5059783;28;20031;-74
2023/01/16 05:27:39;;;;;;;333.27;238.55;;;;;;;;;;5064949;28;20032;-72
2023/01/16 05:30:04;;;;;;;231.43;167.02;;;;;;;;;;5065616;28;20741;-73
2023/01/16 05:32:30;;;;;;;142.15;108.03;;;;;;;;;;5064262;28;20119;-73
2023/01/16 05:34:55;;;;;;;195.50;149.70;;;;;;;;;;5065988;28;20262;-73
2023/01/16 05:37:20;;;;;;;138.23;101.55;;;;;;;;;;5064608;28;20029;-73
2023/01/16 05:39:46;;;;;;;124.97;92.80;;;;;;;;;;5063894;28;20095;-72
2023/01/16 05:42:20;;;;;;;136.02;109.30;;;;;;;;;;5064193;28;20059;-73
2023/01/16 05:44:49;;;;;;;123.72;98.57;;;;;;;;;;5058388;28;20028;-73
2023/01/16 05:47:14;;;;;;;93.30;71.65;;;;;;;;;;5053489;28;20027;-75
2023/01/16 05:49:40;;;;;;;110.53;83.05;;;;;;;;;;5049773;28;20028;-72
2023/01/16 05:52:05;;;;;;;405.88;254.40;;;;;;;;;;5055728;28;20344;-73
2023/01/16 05:54:30;;;;;;;191.43;135.40;;;;;;;;;;5064386;28;20028;-72
2023/01/16 05:56:56;;;;;;;135.10;100.95;;;;;;;;;;5063069;28;20024;-72
2023/01/16 05:59:21;;;;;;;207.95;150.48;;;;;;;;;;5065261;28;20118;-71
2023/01/16 06:01:46;;;;;;;92.60;70.78;;;;;;;;;;5064503;28;20134;-71
2023/01/16 06:04:11;;;;;;;83.60;63.20;;;;;;;;;;5065177;28;20401;-74
2023/01/16 06:06:37;;;;;;;106.35;82.53;;;;;;;;;;5062355;28;20025;-72
2023/01/16 06:09:02;;;;;;;103.07;77.75;;;;;;;;;;5062349;28;20394;-72
2023/01/16 06:11:28;;;;;;;120.18;92.32;;;;;;;;;;5062756;28;20487;-72
2023/01/16 06:13:53;;;;;;;160.23;129.48;;;;;;;;;;5064276;28;20028;-72
2023/01/16 06:16:18;;;;;;;137.88;111.65;;;;;;;;;;5064744;28;20028;-73
2023/01/16 06:18:44;;;;;;;115.85;90.72;;;;;;;;;;5064236;28;20021;-72
2023/01/16 06:21:09;;;;;;;117.97;94.85;;;;;;;;;;5064134;28;20032;-71
2023/01/16 06:23:34;;;;;;;144.80;116.18;;;;;;;;;;5063238;28;20036;-73
2023/01/16 06:26:01;;;;;;;102.60;86.28;;;;;;;;;;5063729;28;20363;-72
2023/01/16 06:28:26;;;;;;;171.55;133.68;;;;;;;;;;5064203;28;20163;-71
2023/01/16 06:30:52;;;;;;;173.30;132.68;;;;;;;;;;5064940;28;20106;-71
2023/01/16 06:33:17;;;;;;;175.05;134.05;;;;;;;;;;5062847;28;20025;-70
2023/01/16 06:35:42;;;;;;;208.05;160.20;;;;;;;;;;5062679;28;20442;-70
2023/01/16 06:38:08;;;;;;;191.65;128.02;;;;;;;;;;5064158;28;20020;-73
2023/01/16 06:40:33;;;;;;;126.68;93.93;;;;;;;;;;5062384;28;20036;-72
2023/01/16 06:42:58;;;;;;;117.00;82.85;;;;;;;;;;5050774;28;20044;-73
2023/01/16 06:45:24;;;;;;;129.85;94.05;;;;;;;;;;5056833;28;20027;-73
2023/01/16 06:47:52;;;;;;;116.18;80.93;;;;;;;;;;5063441;28;20420;-74
2023/01/16 06:50:18;;;;;;;154.18;104.35;;;;;;;;;;5063784;28;20024;-72
2023/01/16 06:52:43;;;;;;;272.52;156.68;;;;;;;;;;5063422;28;20021;-73
2023/01/16 06:55:08;;;;;;;203.98;130.70;;;;;;;;;;5063224;28;20424;-74
2023/01/16 06:57:35;;;;;;;195.68;106.90;;;;;;;;;;5062469;28;20111;-73
2023/01/16 07:00:00;;;;;;;268.55;135.48;;;;;;;;;;5064188;28;20020;-72
2023/01/16 07:02:26;;;;;;;209.25;127.40;;;;;;;;;;5061074;28;20036;-72
2023/01/16 07:04:51;;;;;;;207.15;123.45;;;;;;;;;;5063056;28;20043;-75
2023/01/16 07:07:16;;;;;;;355.80;205.55;;;;;;;;;;5065146;28;20060;-72
2023/01/16 07:09:42;;;;;;;233.80;147.35;;;;;;;;;;5065235;28;20461;-72
2023/01/16 07:12:07;;;;;;;187.45;125.57;;;;;;;;;;5061811;28;20017;-75
2023/01/16 07:22:45;;;;;;;197.43;140.70;;;;;;;;;;5062468;28;20356;-73
2023/01/16 07:25:13;;;;;;;362.48;282.48;;;;;;;;;;5063475;28;20024;-74
2023/01/16 07:27:39;;;;;;;347.63;275.23;;;;;;;;;;5063929;28;20031;-73
2023/01/16 07:30:05;;;;;;;368.88;274.08;;;;;;;;;;5062104;28;20315;-72
2023/01/16 07:32:30;;;;;;;375.90;286.45;;;;;;;;;;5062141;28;20462;-71
2023/01/16 07:34:56;;;;;;;359.10;286.65;;;;;;;;;;5063935;28;20102;-72
2023/01/16 07:37:21;;;;;;;387.33;299.80;;;;;;;;;;5064205;28;20016;-76
2023/01/16 07:39:46;;;;;;;371.80;280.35;;;;;;;;;;5061603;28;20051;-72
2023/01/16 07:42:12;;;;;;;330.52;244.73;;;;;;;;;;5060904;28;20048;-73
2023/01/16 07:44:37;;;;;;;312.95;231.05;;;;;;;;;;5047791;28;20044;-73
2023/01/16 07:47:03;;;;;;;342.55;246.05;;;;;;;;;;5049741;28;20041;-73
2023/01/16 07:49:29;;;;;;;453.80;379.45;;;;;;;;;;5058165;28;20038;-74
2023/01/16 07:51:54;;;;;;;308.30;251.40;;;;;;;;;;5052282;28;20336;-74
2023/01/16 07:54:21;;;;;;;358.83;283.05;;;;;;;;;;5049596;28;20039;-74
2023/01/16 07:56:46;;;;;;;521.95;416.98;;;;;;;;;;5049545;28;20077;-75
2023/01/16 07:59:12;;;;;;;461.00;337.60;;;;;;;;;;5049525;28;20024;-73
2023/01/16 08:01:39;;;;;;;373.50;262.05;;;;;;;;;;5050779;28;20448;-76
2023/01/16 08:04:04;;;;;;;372.60;290.20;;;;;;;;;;5048799;28;20466;-74
2023/01/16 08:06:29;;;;;;;348.73;283.58;;;;;;;;;;5050449;28;20032;-74
2023/01/16 08:08:55;;;;;;;417.48;336.60;;;;;;;;;;5050976;28;20107;-73
2023/01/16 08:11:35;;;;;;;413.10;334.02;;;;;;;;;;5050883;28;20025;-76
2023/01/16 08:14:01;;;;;;;442.60;360.90;;;;;;;;;;5047758;28;20375;-73
2023/01/16 08:16:26;;;;;;;460.60;376.33;;;;;;;;;;5050078;28;20025;-74
2023/01/16 08:18:52;;;;;;;341.05;275.95;;;;;;;;;;5052503;28;20040;-74
2023/01/16 08:21:17;;;;;;;327.10;271.33;;;;;;;;;;5050417;28;20108;-74
2023/01/16 08:23:43;;;;;;;404.35;324.05;;;;;;;;;;5049070;28;20456;-75
2023/01/16 08:26:08;;;;;;;531.45;418.35;;;;;;;;;;5049232;28;20424;-76
2023/01/16 08:28:33;;;;;;;437.65;342.10;;;;;;;;;;5049773;28;20519;-72
2023/01/16 08:31:13;;;;;;;413.27;337.85;;;;;;;;;;5050652;28;20387;-74
2023/01/16 08:33:38;;;;;;;418.83;346.27;;;;;;;;;;5047963;28;20107;-73
2023/01/16 08:36:05;;;;;;;516.63;444.48;;;;;;;;;;5050393;28;20115;-73
2023/01/16 08:38:30;;;;;;;437.10;356.58;;;;;;;;;;5052025;28;20024;-77
2023/01/16 08:40:55;;;;;;;486.40;399.58;;;;;;;;;;5051972;28;20048;-74
2023/01/16 08:51:41;;;;;;;348.17;280.10;;;;;;;;;;5051865;28;20415;-77
2023/01/16 08:54:07;;;;;;;368.23;292.52;;;;;;;;;;5053361;28;20044;-74
2023/01/16 08:56:32;;;;;;;430.95;356.38;;;;;;;;;;5052279;28;20051;-74
2023/01/16 08:58:57;;;;;;;425.25;341.27;;;;;;;;;;5053411;28;20059;-74
2023/01/16 09:01:23;;;;;;;416.98;333.05;;;;;;;;;;5052672;28;20038;-74
2023/01/16 09:03:48;;;;;;;318.35;257.30;;;;;;;;;;5053797;28;20028;-74
2023/01/16 09:06:13;;;;;;;191.20;151.48;;;;;;;;;;5053171;28;20020;-74
2023/01/16 09:08:39;;;;;;;143.75;119.90;;;;;;;;;;5053699;28;20028;-74
2023/01/16 09:14:01;;;;;;;132.75;115.85;;;;;;;;;;5028147;28;20473;-73
2023/01/16 09:16:27;;;;;;;118.93;101.50;;;;;;;;;;5054562;28;20025;-72
2023/01/16 09:18:52;;;;;;;117.90;96.45;;;;;;;;;;5053307;28;20021;-73
2023/01/16 09:21:19;;;;;;;114.30;99.15;;;;;;;;;;5052083;28;20032;-73
2023/01/16 09:23:45;;;;;;;127.20;111.50;;;;;;;;;;5053903;28;20024;-74
2023/01/16 09:26:10;;;;;;;238.82;189.95;;;;;;;;;;5052169;28;20036;-75
2023/01/16 09:28:36;;;;;;;298.45;245.68;;;;;;;;;;5053162;28;20103;-73
2023/01/16 09:31:01;;;;;;;286.30;231.90;;;;;;;;;;5053575;28;20430;-74
2023/01/16 09:33:27;;;;;;;305.48;247.63;;;;;;;;;;5051461;28;20443;-73
2023/01/16 09:35:52;;;;;;;427.48;333.83;;;;;;;;;;5051060;28;20035;-75
2023/01/16 09:38:17;;;;;;;263.13;211.13;;;;;;;;;;5050368;28;20028;-72
2023/01/16 09:40:49;;;;;;;159.88;126.78;;;;;;;;;;5051675;28;20025;-73
2023/01/16 09:43:36;;;;;;;208.05;166.50;;;;;;;;;;5050507;28;20516;-74
2023/01/16 09:46:03;;;;;;;239.68;201.73;;;;;;;;;;5053892;28;20024;-72
2023/01/16 09:48:30;;;;;;;230.35;189.60;;;;;;;;;;5053711;28;20036;-74
2023/01/16 09:51:16;;;;;;;470.48;383.02;;;;;;;;;;5051094;28;20035;-76
2023/01/16 09:59:41;;;;;;;362.98;298.13;;;;;;;;;;5053621;28;20043;-77
2023/01/16 10:02:19;;;;;;;196.20;152.75;;;;;;;;;;5053275;28;20123;-73
2023/01/16 10:04:45;;;;;;;97.13;76.90;;;;;;;;;;5052697;28;20032;-72
2023/01/16 10:07:23;;;;;;;109.68;85.13;;;;;;;;;;5050297;28;23130;-72
2023/01/16 10:10:07;;;;;;;136.57;106.72;;;;;;;;;;5052548;28;20542;-77
2023/01/16 10:12:35;;;;;;;203.52;166.88;;;;;;;;;;5052242;28;20032;-72
2023/01/16 10:15:13;;;;;;;177.48;141.50;;;;;;;;;;5051619;28;20068;-75
2023/01/16 10:17:38;;;;;;;145.27;114.93;;;;;;;;;;5050848;28;20032;-75
2023/01/16 10:20:12;;;;;;;143.50;114.82;;;;;;;;;;5051470;28;20321;-74
2023/01/16 10:22:41;;;;;;;107.63;84.50;;;;;;;;;;5050415;28;20033;-73
2023/01/16 10:25:09;;;;;;;100.28;81.20;;;;;;;;;;5049860;28;20064;-75
2023/01/16 10:27:45;;;;;;;131.93;107.97;;;;;;;;;;5050605;28;20017;-73
2023/01/16 10:30:27;;;;;;;100.30;81.65;;;;;;;;;;5049854;28;20489;-72
2023/01/16 10:32:57;;;;;;;101.88;82.60;;;;;;;;;;5049534;28;20025;-72
2023/01/16 10:35:44;;;;;;;39.50;33.60;;;;;;;;;;5050955;28;20104;-76
2023/01/16 10:38:21;;;;;;;68.07;54.65;;;;;;;;;;5049902;28;20024;-78
2023/01/16 10:40:51;;;;;;;63.92;49.70;;;;;;;;;;5049914;28;20131;-72
2023/01/16 10:51:40;;;;;;;57.88;45.25;;;;;;;;;;5052038;28;20095;-72
2023/01/16 10:54:05;;;;;;;52.10;41.50;;;;;;;;;;5051145;28;20109;-72
2023/01/16 10:56:33;;;;;;;71.20;56.70;;;;;;;;;;5051463;28;20162;-72
2023/01/16 10:58:58;;;;;;;76.80;58.58;;;;;;;;;;5049484;28;20046;-73
2023/01/16 11:01:24;;;;;;;103.53;76.55;;;;;;;;;;5049704;28;20024;-74
2023/01/16 11:03:51;;;;;;;61.42;49.08;;;;;;;;;;5050117;28;20044;-72
2023/01/16 11:06:30;;;;;;;70.22;55.30;;;;;;;;;;5051548;28;20473;-73
2023/01/16 11:08:55;;;;;;;136.93;104.85;;;;;;;;;;5063144;28;20408;-75
2023/01/16 11:20:01;;;;;;;133.18;102.80;;;;;;;;;;5064083;28;20450;-76
2023/01/16 11:22:27;;;;;;;137.45;112.60;;;;;;;;;;5062414;28;20028;-74
2023/01/16 11:24:54;;;;;;;133.20;106.05;;;;;;;;;;5064693;28;20037;-75
2023/01/16 11:27:22;;;;;;;154.45;121.30;;;;;;;;;;5068938;28;20025;-76
2023/01/16 11:29:51;;;;;;;121.90;97.05;;;;;;;;;;5063446;28;20035;-74
2023/01/16 11:32:24;;;;;;;122.78;97.78;;;;;;;;;;5064025;28;20793;-73
2023/01/16 11:34:50;;;;;;;134.45;99.90;;;;;;;;;;5064016;28;20816;-72
2023/01/16 11:37:16;;;;;;;94.47;71.05;;;;;;;;;;5064595;28;20029;-74
2023/01/16 11:39:46;;;;;;;50.40;39.88;;;;;;;;;;5063195;28;20029;-74
2023/01/16 11:47:42;;;;;;;82.65;62.58;;;;;;;;;;5064477;28;20031;-73
2023/01/16 11:50:39;;;;;;;94.15;77.95;;;;;;;;;;5063149;28;20217;-73
2023/01/16 11:53:05;;;;;;;86.45;76.72;;;;;;;;;;5059509;28;20048;-73
2023/01/16 11:55:38;;;;;;;69.32;60.63;;;;;;;;;;5060167;28;20036;-76
2023/01/16 11:58:14;;;;;;;58.53;49.70;;;;;;;;;;5060316;28;20033;-79
2023/01/16 12:00:39;;;;;;;53.17;45.78;;;;;;;;;;5059018;28;20227;-73
2023/01/16 12:03:23;;;;;;;73.57;62.92;;;;;;;;;;5060225;28;20423;-73
2023/01/16 12:05:56;;;;;;;46.28;39.33;;;;;;;;;;5058523;28;20072;-73
2023/01/16 12:08:37;;;;;;;46.58;40.63;;;;;;;;;;5060116;28;20027;-73
2023/01/16 12:11:11;;;;;;;59.38;50.45;;;;;;;;;;5060329;28;20036;-74
2023/01/16 12:16:30;;;;;;;64.20;56.25;;;;;;;;;;5063182;28;20035;-74
2023/01/16 12:19:01;;;;;;;45.38;39.58;;;;;;;;;;5063677;28;20128;-77
2023/01/16 12:21:31;;;;;;;36.67;32.78;;;;;;;;;;5062843;28;20436;-73
2023/01/16 12:24:19;;;;;;;240.73;153.18;;;;;;;;;;5062839;28;20404;-73
2023/01/16 12:26:48;;;;;;;74.50;59.88;;;;;;;;;;5061998;28;20028;-74
2023/01/16 12:29:20;;;;;;;79.85;61.80;;;;;;;;;;5065138;28;20206;-74
2023/01/16 12:31:56;;;;;;;97.85;84.32;;;;;;;;;;5066947;28;20033;-73
2023/01/16 12:34:41;;;;;;;111.82;92.25;;;;;;;;;;5067434;28;20110;-73
2023/01/16 12:37:15;;;;;;;178.60;138.02;;;;;;;;;;5067383;28;20040;-74
2023/01/16 12:39:44;;;;;;;347.98;249.25;;;;;;;;;;5066304;28;20032;-73
2023/01/16 12:45:15;;;;;;;122.43;98.75;;;;;;;;;;5066948;28;20074;-74
2023/01/16 12:47:59;;;;;;;64.65;54.00;;;;;;;;;;5067236;28;20032;-73
2023/01/16 12:50:24;;;;;;;50.40;41.20;;;;;;;;;;5066181;28;20020;-74
2023/01/16 12:52:53;;;;;;;89.13;66.07;;;;;;;;;;5066082;28;20034;-74
2023/01/16 12:55:21;;;;;;;88.45;66.97;;;;;;;;;;5065900;28;20031;-76
2023/01/16 12:57:46;;;;;;;89.82;68.30;;;;;;;;;;5065344;28;20039;-73
2023/01/16 13:00:14;;;;;;;179.35;121.35;;;;;;;;;;5065047;28;20020;-72
2023/01/16 13:02:44;;;;;;;123.38;89.82;;;;;;;;;;5065397;28;20436;-75
2023/01/16 13:05:12;;;;;;;109.68;82.90;;;;;;;;;;5066136;28;20123;-73
2023/01/16 13:07:44;;;;;;;84.83;62.83;;;;;;;;;;5066057;28;20031;-72
2023/01/16 13:15:40;;;;;;;61.83;49.83;;;;;;;;;;5068377;28;20039;-73
2023/01/16 13:18:23;;;;;;;59.50;48.67;;;;;;;;;;5066165;28;20082;-73
2023/01/16 13:20:51;;;;;;;62.10;51.35;;;;;;;;;;5064941;28;20025;-72
2023/01/16 13:23:19;;;;;;;61.67;48.58;;;;;;;;;;5064207;28;20064;-73
2023/01/16 13:25:45;;;;;;;57.13;45.30;;;;;;;;;;5066966;28;20029;-72
2023/01/16 13:28:23;;;;;;;71.32;54.38;;;;;;;;;;5065094;28;20063;-74
2023/01/16 13:30:50;;;;;;;84.03;64.13;;;;;;;;;;5065512;28;20063;-75
2023/01/16 13:33:19;;;;;;;72.95;55.05;;;;;;;;;;5065207;28;20039;-72
2023/01/16 13:35:51;;;;;;;60.80;46.17;;;;;;;;;;5064020;28;20012;-72
2023/01/16 13:38:28;;;;;;;59.97;45.78;;;;;;;;;;5063044;28;20479;-76
2023/01/16 13:40:53;;;;;;;70.32;55.78;;;;;;;;;;5065198;28;20032;-72
2023/01/16 13:46:14;;;;;;;83.13;60.65;;;;;;;;;;5065131;28;20112;-73
2023/01/16 13:48:39;;;;;;;87.20;73.82;;;;;;;;;;5065772;28;20028;-73
2023/01/16 13:51:15;;;;;;;81.03;58.85;;;;;;;;;;5064473;28;20032;-72
2023/01/16 13:53:41;;;;;;;105.25;79.22;;;;;;;;;;5059757;28;20173;-72
2023/01/16 13:56:08;;;;;;;73.10;54.78;;;;;;;;;;5059019;28;20457;-72
2023/01/16 13:58:37;;;;;;;66.22;50.80;;;;;;;;;;5062450;28;20653;-72
2023/01/16 14:01:04;;;;;;;111.22;83.53;;;;;;;;;;5051518;28;20024;-74
2023/01/16 14:03:33;;;;;;;139.52;105.88;;;;;;;;;;5049063;28;20139;-72
2023/01/16 14:06:05;;;;;;;83.47;63.03;;;;;;;;;;5049470;28;20043;-72
2023/01/16 14:09:08;;;;;;;65.15;50.33;;;;;;;;;;5053098;28;20057;-72
2023/01/16 14:11:51;;;;;;;61.05;46.58;;;;;;;;;;5054543;28;20113;-75
2023/01/16 14:17:16;;;;;;;64.05;47.33;;;;;;;;;;5065227;28;20075;-72
2023/01/16 14:19:42;;;;;;;78.35;59.03;;;;;;;;;;5058031;28;20959;-74
2023/01/16 14:24:43;;;;;;;98.28;72.20;;;;;;;;;;5063075;28;20056;-71
2023/01/16 14:27:13;;;;;;;100.95;71.18;;;;;;;;;;5063914;28;20064;-72
2023/01/16 14:29:38;;;;;;;;;;;;;;;;;;5051605;28;20422;-72
2023/01/16 14:32:05;;;;;;;174.07;116.00;;;;;;;;;;5051993;28;19908;-72
2023/01/16 14:34:35;;;;;;;179.55;118.63;;;;;;;;;;5064877;28;20028;-73
2023/01/16 14:37:05;;;;;;;232.23;151.82;;;;;;;;;;5058785;28;20078;-74
2023/01/16 14:39:35;;;;;;;214.48;138.93;;;;;;;;;;5047356;28;20055;-72
2023/01/16 14:56:31;;;;;;;100.78;77.60;;;;;;;;;;5049938;28;20108;-73
2023/01/16 14:59:04;;;;;;;102.68;78.95;;;;;;;;;;5050707;28;20035;-76
2023/01/16 15:04:21;;;;;;;98.95;73.15;;;;;;;;;;5061235;28;20105;-73
2023/01/16 15:06:51;;;;;;;100.75;76.30;;;;;;;;;;5057256;28;20078;-72
2023/01/16 15:09:17;;;;;;;118.28;90.00;;;;;;;;;;5056259;28;20089;-73
2023/01/16 15:11:51;;;;;;;108.40;80.05;;;;;;;;;;5057898;28;20024;-73
2023/01/16 15:14:30;;;;;;;114.43;81.68;;;;;;;;;;5056159;28;20064;-76
2023/01/16 15:22:41;;;;;;;132.27;99.28;;;;;;;;;;5050745;28;20098;-75
2023/01/16 15:25:32;;;;;;;125.40;92.57;;;;;;;;;;5048926;28;20040;-71
2023/01/16 15:28:06;;;;;;;130.10;96.78;;;;;;;;;;5037353;28;20024;-73
2023/01/16 15:30:32;;;;;;;111.93;80.75;;;;;;;;;;5051119;28;20029;-71
2023/01/16 15:33:44;;;;;;;208.20;150.30;;;;;;;;;;5049700;28;20024;-72
2023/01/16 15:35:45;;;;;;;170.20;123.68;;;;;;;;;;5048324;28;20444;-75
2023/01/16 15:38:13;;;;;;;118.85;94.05;;;;;;;;;;5051230;28;20105;-72
2023/01/16 15:40:47;;;;;;;117.95;91.28;;;;;;;;;;5048601;28;20097;-73
2023/01/16 15:52:02;;;;;;;85.35;59.22;;;;;;;;;;5026423;28;20109;-72
2023/01/16 15:54:27;;;;;;;115.35;83.15;;;;;;;;;;5025488;28;20072;-72
2023/01/16 15:56:53;;;;;;;102.32;71.88;;;;;;;;;;5027607;28;20546;-73
2023/01/16 15:59:22;;;;;;;101.50;73.95;;;;;;;;;;5027289;28;20028;-72